createdAt,value
2022-11-28T00:01:35.509Z,101155.19
2022-11-28T00:04:02.731Z,101146.75
2022-11-28T00:06:29.668Z,101150.91
2022-11-28T00:08:59.287Z,101135.31
2022-11-28T00:11:26.463Z,101127.56
2022-11-28T00:13:54.356Z,101136.72
2022-11-28T00:16:22.913Z,101148.38
2022-11-28T00:18:51.312Z,101140.97
2022-11-28T00:21:18.357Z,101123.38
2022-11-28T00:23:46.984Z,101126.56
2022-11-28T00:26:20.661Z,101133.06
2022-11-28T00:28:47.482Z,101132.53
2022-11-28T00:31:20.654Z,101127.69
2022-11-28T00:33:48.326Z,101123.13
2022-11-28T00:36:15.635Z,101109.19
2022-11-28T00:38:43.274Z,101116.03
2022-11-28T00:41:14.057Z,101114.41
2022-11-28T00:43:41.903Z,101124.38
2022-11-28T00:46:09.067Z,101113.94
2022-11-28T00:48:36.421Z,101111.50
2022-11-28T00:51:15.590Z,101107.84
2022-11-28T00:53:44.271Z,101105.31
2022-11-28T00:56:13.091Z,101102.06
2022-11-28T00:58:41.108Z,101099.66
2022-11-28T01:01:18.695Z,101092.22
2022-11-28T01:03:46.440Z,101082.00
2022-11-28T01:06:13.868Z,101092.78
2022-11-28T01:08:40.510Z,101092.91
2022-11-28T01:11:12.975Z,101079.31
2022-11-28T01:13:40.877Z,101081.25
2022-11-28T01:16:08.523Z,101070.59
2022-11-28T01:18:36.967Z,101071.97
2022-11-28T01:21:04.156Z,101062.22
2022-11-28T01:23:30.864Z,101057.31
2022-11-28T01:25:57.654Z,101042.59
2022-11-28T01:28:24.326Z,101060.91
2022-11-28T01:30:51.001Z,101074.59
2022-11-28T01:33:17.951Z,101055.69
2022-11-28T01:35:54.622Z,101070.75
2022-11-28T01:38:21.808Z,101054.09
2022-11-28T01:40:48.525Z,101050.09
2022-11-28T01:43:15.296Z,101056.88
2022-11-28T01:45:42.400Z,101043.03
2022-11-28T01:48:14.010Z,101032.03
2022-11-28T01:50:43.736Z,101036.78
2022-11-28T01:53:11.289Z,101026.41
2022-11-28T01:55:44.395Z,101030.84
2022-11-28T01:58:12.325Z,101017.25
2022-11-28T02:00:39.222Z,101010.84
2022-11-28T02:03:14.907Z,100998.00
2022-11-28T02:05:41.673Z,100997.28
2022-11-28T02:08:09.841Z,100989.19
2022-11-28T02:10:50.744Z,100980.84
2022-11-28T02:13:52.529Z,100983.94
2022-11-28T02:16:40.722Z,100978.00
2022-11-28T02:19:16.539Z,100975.63
2022-11-28T02:21:52.349Z,100972.63
2022-11-28T02:24:46.956Z,100954.09
2022-11-28T02:27:22.431Z,100938.31
2022-11-28T02:30:05.525Z,100938.44
2022-11-28T02:32:45.087Z,100947.19
2022-11-28T02:35:35.003Z,100935.16
2022-11-28T02:38:28.108Z,100931.84
2022-11-28T02:41:19.072Z,100923.31
2022-11-28T02:43:54.861Z,100913.22
2022-11-28T02:46:40.265Z,100913.56
2022-11-28T02:49:21.314Z,100896.28
2022-11-28T02:51:55.403Z,100892.97
2022-11-28T02:54:24.057Z,100891.44
2022-11-28T02:56:53.050Z,100890.16
2022-11-28T02:59:37.856Z,100886.19
2022-11-28T03:02:11.008Z,100890.13
2022-11-28T03:05:02.738Z,100888.25
2022-11-28T03:07:50.506Z,100877.88
2022-11-28T03:10:30.489Z,100870.13
2022-11-28T03:13:18.826Z,100872.34
2022-11-28T03:16:00.654Z,100862.31
2022-11-28T03:18:36.447Z,100866.72
2022-11-28T03:21:31.405Z,100867.22
2022-11-28T03:24:02.760Z,100872.50
2022-11-28T03:26:35.122Z,100862.06
2022-11-28T03:29:35.426Z,100872.22
2022-11-28T03:32:08.164Z,100884.59
2022-11-28T03:34:39.652Z,100874.19
2022-11-28T03:37:16.372Z,100872.00
2022-11-28T03:39:48.725Z,100872.28
2022-11-28T03:42:28.332Z,100869.31
2022-11-28T03:44:54.885Z,100876.66
2022-11-28T03:47:25.499Z,100877.34
2022-11-28T03:49:55.094Z,100864.31
2022-11-28T03:52:35.415Z,100870.59
2022-11-28T03:55:07.536Z,100869.78
2022-11-28T03:57:42.098Z,100877.41
2022-11-28T04:00:12.915Z,100885.47
2022-11-28T04:03:09.994Z,100883.38
2022-11-28T04:05:52.908Z,100870.25
2022-11-28T04:08:28.346Z,100872.44
2022-11-28T04:11:08.788Z,100872.09
2022-11-28T04:13:50.415Z,100880.00
2022-11-28T04:16:24.089Z,100866.88
2022-11-28T04:19:33.196Z,100859.91
2022-11-28T04:22:05.027Z,100879.72
2022-11-28T04:24:57.896Z,100876.94
2022-11-28T04:27:31.867Z,100881.63
2022-11-28T04:30:01.673Z,100877.84
2022-11-28T04:32:31.341Z,100879.84
2022-11-28T04:35:11.076Z,100904.00
2022-11-28T04:37:39.951Z,100884.88
2022-11-28T04:40:11.265Z,100881.66
2022-11-28T04:42:43.355Z,100879.31
2022-11-28T04:45:17.344Z,100872.75
2022-11-28T04:47:45.375Z,100885.66
2022-11-28T04:50:13.556Z,100881.66
2022-11-28T04:53:07.683Z,100872.31
2022-11-28T04:55:52.089Z,100872.13
2022-11-28T04:58:36.032Z,100865.00
2022-11-28T05:01:07.093Z,100879.56
2022-11-28T05:03:36.762Z,100878.19
2022-11-28T05:06:06.361Z,100869.91
2022-11-28T05:08:33.110Z,100863.75
2022-11-28T05:10:59.722Z,100865.25
2022-11-28T05:13:26.672Z,100866.56
2022-11-28T05:15:53.325Z,100866.19
2022-11-28T05:18:21.490Z,100857.94
2022-11-28T05:20:48.631Z,100843.91
2022-11-28T05:23:15.264Z,100846.25
2022-11-28T05:25:41.869Z,100849.31
2022-11-28T05:28:09.018Z,100856.69
2022-11-28T05:30:35.685Z,100857.59
2022-11-28T05:33:02.779Z,100881.94
2022-11-28T05:35:29.550Z,100900.97
2022-11-28T05:37:56.232Z,100902.78
2022-11-28T05:40:23.035Z,100901.31
2022-11-28T05:42:49.665Z,100906.16
2022-11-28T05:45:16.277Z,100906.66
2022-11-28T05:47:42.945Z,100915.75
2022-11-28T05:50:09.904Z,100923.38
2022-11-28T05:52:36.509Z,100921.53
2022-11-28T05:55:03.484Z,100920.72
2022-11-28T05:57:32.073Z,100918.31
2022-11-28T05:59:58.919Z,100914.41
2022-11-28T06:02:25.731Z,100928.97
2022-11-28T06:04:52.438Z,100919.34
2022-11-28T06:07:19.904Z,100930.22
2022-11-28T06:09:46.845Z,100915.22
2022-11-28T06:12:13.712Z,100908.34
2022-11-28T06:14:40.528Z,100915.41
2022-11-28T06:17:07.207Z,100923.81
2022-11-28T06:19:33.932Z,100901.75
2022-11-28T06:22:00.612Z,100886.97
2022-11-28T06:24:27.367Z,100889.09
2022-11-28T06:26:55.083Z,100875.69
2022-11-28T06:29:22.032Z,100880.13
2022-11-28T06:31:48.689Z,100874.34
2022-11-28T06:34:15.397Z,100868.59
2022-11-28T06:36:43.406Z,100870.44
2022-11-28T06:39:14.313Z,100879.03
2022-11-28T06:41:41.902Z,100874.91
2022-11-28T06:44:14.163Z,100865.78
2022-11-28T06:46:40.824Z,100868.13
2022-11-28T06:49:08.141Z,100868.66
2022-11-28T06:51:34.804Z,100866.69
2022-11-28T06:54:01.458Z,100846.59
2022-11-28T06:56:28.120Z,100860.72
2022-11-28T06:58:56.827Z,100864.22
2022-11-28T07:01:26.102Z,100876.59
2022-11-28T07:03:54.498Z,100879.03
2022-11-28T07:06:22.630Z,100871.31
2022-11-28T07:08:49.796Z,100875.69
2022-11-28T07:11:21.898Z,100873.94
2022-11-28T07:13:50.189Z,100880.03
2022-11-28T07:16:22.437Z,100875.28
2022-11-28T07:18:49.419Z,100883.84
2022-11-28T07:21:16.457Z,100887.34
2022-11-28T07:23:46.575Z,100891.53
2022-11-28T07:26:15.443Z,100892.09
2022-11-28T07:28:43.097Z,100886.22
2022-11-28T07:31:15.447Z,100886.22
2022-11-28T07:33:43.974Z,100880.69
2022-11-28T07:36:14.204Z,100882.66
2022-11-28T07:38:41.437Z,100880.69
2022-11-28T07:41:10.732Z,100874.69
2022-11-28T07:43:38.198Z,100882.38
2022-11-28T07:46:07.155Z,100882.31
2022-11-28T07:48:35.631Z,100894.06
2022-11-28T07:51:14.333Z,100889.78
2022-11-28T07:53:43.418Z,100884.44
2022-11-28T07:56:15.277Z,100900.22
2022-11-28T07:58:44.149Z,100889.56
2022-11-28T08:01:15.904Z,100886.16
2022-11-28T08:03:44.596Z,100895.53
2022-11-28T08:06:12.084Z,100893.28
2022-11-28T08:08:38.742Z,100895.03
2022-11-28T08:11:08.009Z,100888.94
2022-11-28T08:13:36.615Z,100891.13
2022-11-28T08:16:08.061Z,100885.25
2022-11-28T08:18:35.668Z,100884.06
2022-11-28T08:21:17.358Z,100892.44
2022-11-28T08:23:45.333Z,100897.34
2022-11-28T08:26:14.598Z,100901.66
2022-11-28T08:28:42.614Z,100891.00
2022-11-28T08:31:23.755Z,100895.31
2022-11-28T08:33:52.311Z,100906.47
2022-11-28T08:36:20.011Z,100896.75
2022-11-28T08:39:03.545Z,100899.41
2022-11-28T08:41:33.975Z,100913.22
2022-11-28T08:44:00.628Z,100911.03
2022-11-28T08:46:27.328Z,100915.50
2022-11-28T08:48:54.091Z,100918.19
2022-11-28T08:51:23.949Z,100918.13
2022-11-28T08:53:54.963Z,100927.59
2022-11-28T08:56:24.708Z,100931.69
2022-11-28T08:58:51.371Z,100926.47
2022-11-28T09:01:23.775Z,100930.06
2022-11-28T09:03:51.575Z,100932.13
2022-11-28T09:06:18.976Z,100935.78
2022-11-28T09:08:45.645Z,100930.97
2022-11-28T09:11:14.980Z,100927.84
2022-11-28T09:13:41.903Z,100932.03
2022-11-28T09:16:09.169Z,100926.47
2022-11-28T09:18:36.374Z,100922.91
2022-11-28T09:21:09.217Z,100935.69
2022-11-28T09:23:37.065Z,100930.69
2022-11-28T09:26:25.185Z,100935.47
2022-11-28T09:28:52.468Z,100937.16
2022-11-28T09:31:20.203Z,100950.19
2022-11-28T09:33:48.265Z,100944.81
2022-11-28T09:36:17.859Z,100945.66
2022-11-28T09:38:44.852Z,100937.78
2022-11-28T09:41:32.914Z,100939.47
2022-11-28T09:44:28.652Z,100945.63
2022-11-28T09:47:00.392Z,100945.44
2022-11-28T09:49:34.011Z,100931.69
2022-11-28T09:52:17.423Z,100940.53
2022-11-28T09:55:10.423Z,100942.97
2022-11-28T09:57:51.639Z,100945.34
2022-11-28T10:00:28.797Z,100937.00
2022-11-28T10:03:08.713Z,100932.81
2022-11-28T10:05:48.513Z,100946.03
2022-11-28T10:08:42.816Z,100931.88
2022-11-28T10:11:09.440Z,100926.00
2022-11-28T10:14:07.796Z,100927.16
2022-11-28T10:17:10.747Z,100930.44
2022-11-28T10:20:00.682Z,100937.31
2022-11-28T10:22:37.566Z,100933.06
2022-11-28T10:25:18.557Z,100924.78
2022-11-28T10:27:46.550Z,100923.69
2022-11-28T10:30:19.456Z,100932.41
2022-11-28T10:32:55.170Z,100929.69
2022-11-28T10:49:12.738Z,100919.97
2022-11-28T10:51:51.518Z,100909.78
2022-11-28T10:54:20.916Z,100911.56
2022-11-28T10:56:56.169Z,100911.78
2022-11-28T10:59:25.734Z,100911.56
2022-11-28T11:01:53.259Z,100910.34
2022-11-28T11:04:22.694Z,100915.69
2022-11-28T11:07:16.227Z,100901.72
2022-11-28T11:09:46.371Z,100920.72
2022-11-28T11:12:24.086Z,100925.69
2022-11-28T11:14:50.682Z,100912.47
2022-11-28T11:17:36.533Z,100914.72
2022-11-28T11:20:21.439Z,100898.75
2022-11-28T11:22:59.178Z,100903.88
2022-11-28T11:25:28.569Z,100899.78
2022-11-28T11:28:02.249Z,100904.22
2022-11-28T11:30:39.218Z,100900.69
2022-11-28T11:33:12.367Z,100907.47
2022-11-28T11:35:45.818Z,100913.97
2022-11-28T11:38:15.512Z,100912.25
2022-11-28T11:40:42.380Z,100909.03
2022-11-28T11:43:41.110Z,100915.28
2022-11-28T11:46:11.135Z,100909.56
2022-11-28T11:48:49.396Z,100910.69
2022-11-28T11:51:36.623Z,100909.19
2022-11-28T11:54:26.125Z,100911.72
2022-11-28T11:57:05.772Z,100912.19
2022-11-28T11:59:51.592Z,100909.34
2022-11-28T12:02:30.573Z,100909.19
2022-11-28T12:05:10.348Z,100908.53
2022-11-28T12:07:56.486Z,100914.78
2022-11-28T12:10:26.377Z,100916.72
2022-11-28T12:12:53.539Z,100912.88
2022-11-28T12:15:32.655Z,100915.53
2022-11-28T12:18:30.777Z,100912.06
2022-11-28T12:21:25.772Z,100922.66
2022-11-28T12:28:43.195Z,100912.44
2022-11-28T12:31:45.941Z,100912.69
2022-11-28T12:34:54.106Z,100901.09
2022-11-28T12:37:41.987Z,100900.47
2022-11-28T12:40:24.509Z,100904.75
2022-11-28T12:43:05.788Z,100899.31
2022-11-28T12:45:48.769Z,100895.66
2022-11-28T12:48:34.965Z,100889.84
2022-11-28T12:51:16.394Z,100888.28
2022-11-28T12:53:45.777Z,100894.91
2022-11-28T12:56:26.188Z,100893.34
2022-11-28T12:59:08.266Z,100895.38
2022-11-28T13:01:54.908Z,100898.94
2022-11-28T13:04:33.754Z,100895.03
2022-11-28T13:07:00.392Z,100892.81
2022-11-28T13:09:33.239Z,100902.13
2022-11-28T13:12:07.872Z,100893.59
2022-11-28T13:14:52.212Z,100897.53
2022-11-28T13:17:45.476Z,100899.66
2022-11-28T13:20:42.972Z,100901.94
2022-11-28T13:23:21.669Z,100892.91
2022-11-28T13:26:00.148Z,100898.78
2022-11-28T13:29:08.606Z,100894.06
2022-11-28T13:32:01.909Z,100900.22
2022-11-28T13:34:30.132Z,100897.72
2022-11-28T13:40:06.401Z,100898.59
2022-11-28T13:43:03.369Z,100895.59
2022-11-28T13:45:40.322Z,100900.50
2022-11-28T13:49:13.267Z,100893.91
2022-11-28T13:51:31.492Z,100893.56
2022-11-28T13:54:17.645Z,100894.91
2022-11-28T13:57:19.324Z,100892.63
2022-11-28T13:59:53.018Z,100892.31
2022-11-28T14:02:41.927Z,100891.84
2022-11-28T14:05:27.190Z,100891.94
2022-11-28T14:07:56.021Z,100897.16
2022-11-28T14:10:56.539Z,100906.84
2022-11-28T14:13:29.483Z,100908.31
2022-11-28T14:16:09.059Z,100903.31
2022-11-28T14:18:57.980Z,100909.41
2022-11-28T14:21:31.078Z,100908.78
2022-11-28T14:24:00.817Z,100913.13
2022-11-28T14:26:34.223Z,100909.34
2022-11-28T14:29:03.070Z,100914.47
2022-11-28T14:31:37.050Z,100904.53
2022-11-28T14:34:30.934Z,100914.28
2022-11-28T15:22:43.595Z,100942.19
2022-11-28T15:25:25.336Z,100923.50
2022-11-28T15:27:53.274Z,100936.78
2022-11-28T15:30:26.513Z,100930.78
2022-11-28T15:33:00.100Z,100934.44
2022-11-28T15:35:27.907Z,100937.81
2022-11-28T15:37:57.948Z,100937.13
2022-11-28T15:40:36.261Z,100941.28
2022-11-28T15:43:09.554Z,100937.13
2022-11-28T15:45:42.193Z,100942.41
2022-11-28T15:48:25.943Z,100935.91
2022-11-28T15:50:52.689Z,100940.06
2022-11-28T15:53:20.944Z,100937.22
2022-11-28T15:55:47.914Z,100935.28
2022-11-28T15:58:23.399Z,100937.28
2022-11-28T16:00:59.497Z,100938.34
2022-11-28T16:03:31.797Z,100934.19
2022-11-28T16:05:59.627Z,100936.22
2022-11-28T16:08:40.552Z,100936.59
2022-11-28T16:11:10.095Z,100937.47
2022-11-28T16:13:40.206Z,100938.72
2022-11-28T16:16:14.943Z,100950.47
2022-11-28T16:18:50.427Z,100955.50
2022-11-28T16:21:17.039Z,100954.38
2022-11-28T16:23:43.698Z,100964.28
2022-11-28T16:26:42.431Z,100961.13
2022-11-28T16:29:09.318Z,100955.81
2022-11-28T16:31:35.966Z,100965.13
2022-11-28T16:34:03.338Z,100959.28
2022-11-28T16:36:30.963Z,100951.25
2022-11-28T16:39:23.894Z,100962.09
2022-11-28T16:42:06.421Z,100962.00
2022-11-28T16:44:33.616Z,100960.66
2022-11-28T16:47:00.814Z,100966.84
2022-11-28T16:49:58.930Z,100963.47
2022-11-28T16:52:25.460Z,100968.28
2022-11-28T16:54:55.390Z,100976.63
2022-11-28T16:57:22.508Z,100964.59
2022-11-28T16:59:52.738Z,100972.28
2022-11-28T17:02:22.783Z,100972.19
2022-11-28T17:04:51.970Z,100975.31
2022-11-28T17:07:21.213Z,100980.09
2022-11-28T17:09:49.248Z,100977.22
2022-11-28T17:12:27.268Z,100975.59
2022-11-28T17:14:55.452Z,100974.44
2022-11-28T17:17:23.396Z,100979.31
2022-11-28T17:19:50.654Z,100977.41
2022-11-28T17:22:20.967Z,100970.16
2022-11-28T17:24:49.587Z,100984.13
2022-11-28T17:27:16.775Z,100981.06
2022-11-28T17:29:43.676Z,100981.44
2022-11-28T17:32:13.410Z,100980.97
2022-11-28T17:34:42.049Z,100989.13
2022-11-28T17:37:09.650Z,100985.03
2022-11-28T17:39:36.359Z,100993.22
2022-11-28T17:42:04.033Z,100983.56
2022-11-28T17:44:36.162Z,100984.81
2022-11-28T17:47:04.278Z,100986.91
2022-11-28T17:49:31.799Z,100983.56
2022-11-28T17:51:59.003Z,100985.81
2022-11-28T17:54:26.464Z,100983.09
2022-11-28T17:56:56.230Z,100984.81
2022-11-28T17:59:24.291Z,100988.78
2022-11-28T18:01:51.225Z,100994.31
2022-11-28T18:04:23.458Z,100989.06
2022-11-28T18:06:50.217Z,100985.22
2022-11-28T18:09:16.996Z,100988.66
2022-11-28T18:11:46.684Z,100991.91
2022-11-28T18:14:13.642Z,100991.34
2022-11-28T18:16:42.931Z,100992.72
2022-11-28T18:19:10.354Z,100990.94
2022-11-28T18:21:37.521Z,100990.72
2022-11-28T18:24:04.707Z,100993.22
2022-11-28T18:26:31.854Z,101005.19
2022-11-28T18:28:59.159Z,101006.66
2022-11-28T18:31:28.841Z,100995.63
2022-11-28T18:34:01.672Z,101001.06
2022-11-28T18:36:31.581Z,100997.72
2022-11-28T18:39:00.812Z,100999.72
2022-11-28T18:41:28.362Z,101000.75
2022-11-28T18:44:01.108Z,101003.84
2022-11-28T18:46:29.471Z,100995.59
2022-11-28T18:48:57.189Z,100998.44
2022-11-28T18:51:30.021Z,101001.94
2022-11-28T18:53:57.390Z,101010.16
2022-11-28T18:56:25.951Z,101012.06
2022-11-28T18:58:54.352Z,101008.75
2022-11-28T19:01:22.707Z,101002.00
2022-11-28T19:03:51.080Z,101004.69
2022-11-28T19:06:18.807Z,101003.75
2022-11-28T19:08:46.714Z,101007.94
2022-11-28T19:11:16.029Z,101014.25
2022-11-28T19:13:44.584Z,101005.28
2022-11-28T19:16:19.720Z,101006.22
2022-11-28T19:18:46.872Z,101008.84
2022-11-28T19:21:16.559Z,101019.88
2022-11-28T19:23:43.665Z,101011.88
2022-11-28T19:26:12.621Z,101020.41
2022-11-28T19:28:40.965Z,101013.78
2022-11-28T19:31:15.276Z,101015.94
2022-11-28T19:33:44.016Z,101018.94
2022-11-28T19:36:13.141Z,101025.94
2022-11-28T19:38:40.989Z,101023.84
2022-11-28T19:41:19.134Z,101013.22
2022-11-28T19:43:46.407Z,101012.50
2022-11-28T19:46:14.314Z,101019.75
2022-11-28T19:48:42.449Z,101028.44
2022-11-28T19:51:10.774Z,101019.91
2022-11-28T19:53:39.428Z,101022.13
2022-11-28T19:56:18.307Z,101023.78
2022-11-28T19:58:45.390Z,101029.75
2022-11-28T20:01:15.168Z,101027.88
2022-11-28T20:03:43.111Z,101025.69
2022-11-28T20:06:13.638Z,101029.47
2022-11-28T20:08:41.521Z,101029.41
2022-11-28T20:11:19.335Z,101026.50
2022-11-28T20:13:46.969Z,101028.53
2022-11-28T20:16:17.311Z,101031.13
2022-11-28T20:18:44.943Z,101039.19
2022-11-28T20:21:18.474Z,101035.28
2022-11-28T20:23:50.606Z,101041.44
2022-11-28T20:26:19.399Z,101036.66
2022-11-28T20:28:47.456Z,101037.19
2022-11-28T20:31:23.782Z,101037.66
2022-11-28T20:33:51.192Z,101039.78
2022-11-28T20:36:21.666Z,101033.06
2022-11-28T20:38:49.773Z,101038.59
2022-11-28T20:41:17.995Z,101044.16
2022-11-28T20:43:45.152Z,101037.81
2022-11-28T20:46:22.488Z,101044.44
2022-11-28T20:48:50.501Z,101046.47
2022-11-28T20:51:20.229Z,101047.84
2022-11-28T20:53:47.127Z,101050.22
2022-11-28T20:56:17.148Z,101044.94
2022-11-28T20:58:44.639Z,101049.41
2022-11-28T21:01:21.377Z,101047.25
2022-11-28T21:03:48.551Z,101051.50
2022-11-28T21:06:15.417Z,101054.22
2022-11-28T21:08:42.643Z,101050.56
2022-11-28T21:11:25.287Z,101057.91
2022-11-28T21:13:59.882Z,101058.47
2022-11-28T21:16:29.063Z,101061.16
2022-11-28T21:18:57.480Z,101056.59
2022-11-28T21:21:29.924Z,101055.44
2022-11-28T21:24:07.874Z,101061.81
2022-11-28T21:26:40.445Z,101058.25
2022-11-28T21:29:09.179Z,101055.50
2022-11-28T21:31:39.589Z,101062.03
2022-11-28T21:34:06.326Z,101064.34
2022-11-28T21:36:33.086Z,101054.97
2022-11-28T21:39:00.993Z,101059.59
2022-11-28T21:41:30.781Z,101062.34
2022-11-28T21:43:58.555Z,101061.75
2022-11-28T21:46:25.901Z,101050.06
2022-11-28T21:48:53.616Z,101055.41
2022-11-28T21:51:25.117Z,101055.41
2022-11-28T21:53:52.187Z,101059.94
2022-11-28T21:56:21.947Z,101062.28
2022-11-28T21:58:48.732Z,101063.03
2022-11-28T22:01:15.707Z,101064.09
2022-11-28T22:03:43.866Z,101057.59
2022-11-28T22:06:19.583Z,101059.22
2022-11-28T22:08:48.733Z,101060.97
2022-11-28T22:11:16.497Z,101060.63
2022-11-28T22:13:45.996Z,101066.00
2022-11-28T22:16:16.148Z,101065.03
2022-11-28T22:18:44.732Z,101071.47
2022-11-28T22:21:49.399Z,101072.63
2022-11-28T22:23:58.717Z,101073.72
2022-11-28T22:26:25.359Z,101074.59
2022-11-28T22:28:53.736Z,101067.06
2022-11-28T22:31:23.283Z,101069.69
2022-11-28T22:33:50.713Z,101072.47
2022-11-28T22:36:20.077Z,101066.69
2022-11-28T22:38:49.401Z,101072.09
2022-11-28T22:41:27.936Z,101078.31
2022-11-28T22:43:57.597Z,101085.19
2022-11-28T22:46:24.681Z,101081.81
2022-11-28T22:48:52.115Z,101082.72
2022-11-28T22:51:24.723Z,101080.94
2022-11-28T22:53:56.695Z,101077.41
2022-11-28T22:56:26.174Z,101086.81
2022-11-28T22:58:54.367Z,101082.09
2022-11-28T23:01:24.253Z,101084.06
2022-11-28T23:03:51.928Z,101088.34
2022-11-28T23:06:21.399Z,101086.69
2022-11-28T23:08:54.198Z,101083.25
2022-11-28T23:11:24.480Z,101091.72
2022-11-28T23:13:51.916Z,101092.53
2022-11-28T23:16:23.919Z,101084.25
2022-11-28T23:18:52.988Z,101094.47
2022-11-28T23:21:21.391Z,101082.75
2022-11-28T23:23:49.465Z,101085.56
2022-11-28T23:26:20.051Z,101085.19
2022-11-28T23:28:47.651Z,101089.47
2022-11-28T23:31:20.813Z,101096.16
2022-11-28T23:33:49.091Z,101092.66
2022-11-28T23:36:41.677Z,101087.91
2022-11-28T23:39:26.976Z,101095.53
2022-11-28T23:42:02.938Z,101093.41
2022-11-28T23:44:29.613Z,101104.50
2022-11-28T23:46:56.357Z,101107.38
2022-11-28T23:49:23.064Z,101108.22
2022-11-28T23:51:49.743Z,101107.66
2022-11-28T23:54:16.719Z,101105.16
2022-11-28T23:56:43.715Z,101104.25
2022-11-28T23:59:11.565Z,101110.84
